sensor_id;sensor_type;location;lat;lon;timestamp;pressure;altitude;pressure_sealevel;temperature;humidity
7376;BME280;3728;42.266;24.944;2023-01-25T00:01:39;101047.69;;;4.19;94.93
7376;BME280;3728;42.266;24.944;2023-01-25T00:04:07;101050.06;;;4.20;95.21
7376;BME280;3728;42.266;24.944;2023-01-25T00:06:35;101049.06;;;4.21;95.54
7376;BME280;3728;42.266;24.944;2023-01-25T00:09:03;101057.84;;;4.20;95.18
7376;BME280;3728;42.266;24.944;2023-01-25T00:11:31;101054.31;;;4.44;94.88
7376;BME280;3728;42.266;24.944;2023-01-25T00:13:58;101050.66;;;4.34;94.39
7376;BME280;3728;42.266;24.944;2023-01-25T00:16:26;101044.00;;;4.26;95.49
7376;BME280;3728;42.266;24.944;2023-01-25T00:18:53;101046.28;;;4.34;94.75
7376;BME280;3728;42.266;24.944;2023-01-25T00:21:23;101051.50;;;4.46;94.58
7376;BME280;3728;42.266;24.944;2023-01-25T00:23:51;101057.59;;;4.51;93.46
7376;BME280;3728;42.266;24.944;2023-01-25T00:26:20;101051.03;;;4.37;94.17
7376;BME280;3728;42.266;24.944;2023-01-25T00:28:52;101046.22;;;4.23;95.21
7376;BME280;3728;42.266;24.944;2023-01-25T00:36:57;101049.13;;;4.14;95.06
7376;BME280;3728;42.266;24.944;2023-01-25T00:39:29;101051.16;;;4.42;94.35
7376;BME280;3728;42.266;24.944;2023-01-25T00:41:56;101049.03;;;4.51;92.00
7376;BME280;3728;42.266;24.944;2023-01-25T00:44:24;101049.31;;;4.31;94.56
7376;BME280;3728;42.266;24.944;2023-01-25T00:46:52;101044.56;;;4.28;95.03
7376;BME280;3728;42.266;24.944;2023-01-25T00:49:26;101049.66;;;4.35;94.13
7376;BME280;3728;42.266;24.944;2023-01-25T00:51:57;101059.28;;;4.46;92.41
7376;BME280;3728;42.266;24.944;2023-01-25T00:54:25;101067.41;;;4.49;92.19
7376;BME280;3728;42.266;24.944;2023-01-25T00:56:52;101060.34;;;4.68;91.06
7376;BME280;3728;42.266;24.944;2023-01-25T00:59:23;101061.53;;;4.42;94.07
7376;BME280;3728;42.266;24.944;2023-01-25T01:01:53;101060.19;;;4.51;92.99
7376;BME280;3728;42.266;24.944;2023-01-25T01:04:21;101055.81;;;4.52;93.61
7376;BME280;3728;42.266;24.944;2023-01-25T01:06:52;101061.88;;;4.46;93.26
7376;BME280;3728;42.266;24.944;2023-01-25T01:09:22;101056.81;;;4.51;91.36
7376;BME280;3728;42.266;24.944;2023-01-25T01:11:51;101060.66;;;3.71;95.98
7376;BME280;3728;42.266;24.944;2023-01-25T01:14:21;101055.97;;;3.43;100.00
7376;BME280;3728;42.266;24.944;2023-01-25T01:16:49;101056.34;;;3.65;100.00
7376;BME280;3728;42.266;24.944;2023-01-25T01:19:17;101058.63;;;3.91;99.42
7376;BME280;3728;42.266;24.944;2023-01-25T01:21:45;101049.13;;;4.14;97.77
7376;BME280;3728;42.266;24.944;2023-01-25T01:24:13;101057.84;;;4.20;97.46
7376;BME280;3728;42.266;24.944;2023-01-25T01:26:41;101050.00;;;4.38;97.00
7376;BME280;3728;42.266;24.944;2023-01-25T01:29:08;101049.34;;;3.83;97.25
7376;BME280;3728;42.266;24.944;2023-01-25T01:31:36;101049.47;;;4.48;95.64
7376;BME280;3728;42.266;24.944;2023-01-25T01:34:12;101049.50;;;4.18;95.28
7376;BME280;3728;42.266;24.944;2023-01-25T01:36:41;101041.31;;;4.03;96.80
7376;BME280;3728;42.266;24.944;2023-01-25T01:39:09;101044.22;;;3.95;98.52
7376;BME280;3728;42.266;24.944;2023-01-25T01:41:39;101037.31;;;3.71;100.00
7376;BME280;3728;42.266;24.944;2023-01-25T01:44:19;101031.09;;;3.60;100.00
7376;BME280;3728;42.266;24.944;2023-01-25T01:46:56;101029.91;;;3.56;100.00
7376;BME280;3728;42.266;24.944;2023-01-25T01:49:31;101028.75;;;3.88;100.00
7376;BME280;3728;42.266;24.944;2023-01-25T01:52:10;101027.59;;;3.84;100.00
7376;BME280;3728;42.266;24.944;2023-01-25T01:54:43;101028.34;;;3.73;100.00
7376;BME280;3728;42.266;24.944;2023-01-25T01:57:21;101032.78;;;3.84;100.00
7376;BME280;3728;42.266;24.944;2023-01-25T02:00:04;101023.28;;;4.08;100.00
7376;BME280;3728;42.266;24.944;2023-01-25T02:02:42;101023.56;;;3.88;98.88
7376;BME280;3728;42.266;24.944;2023-01-25T02:05:25;101031.38;;;4.30;99.01
7376;BME280;3728;42.266;24.944;2023-01-25T02:07:57;101029.78;;;4.81;93.73
7376;BME280;3728;42.266;24.944;2023-01-25T02:10:27;101033.59;;;4.67;92.08
7376;BME280;3728;42.266;24.944;2023-01-25T02:12:57;101032.31;;;4.35;94.58
7376;BME280;3728;42.266;24.944;2023-01-25T02:15:36;101029.72;;;4.35;93.36
7376;BME280;3728;42.266;24.944;2023-01-25T02:18:09;101031.22;;;4.43;94.11
7376;BME280;3728;42.266;24.944;2023-01-25T02:20:39;101033.53;;;4.33;94.47
7376;BME280;3728;42.266;24.944;2023-01-25T02:23:21;101024.97;;;4.32;94.73
7376;BME280;3728;42.266;24.944;2023-01-25T02:26:00;101027.81;;;3.83;95.92
7376;BME280;3728;42.266;24.944;2023-01-25T02:28:46;101027.06;;;3.94;97.46
7376;BME280;3728;42.266;24.944;2023-01-25T02:31:16;101028.47;;;3.78;97.51
7376;BME280;3728;42.266;24.944;2023-01-25T02:33:47;101025.44;;;3.63;99.45
7376;BME280;3728;42.266;24.944;2023-01-25T02:36:25;101019.88;;;3.96;97.87
7376;BME280;3728;42.266;24.944;2023-01-25T02:39:04;101028.38;;;3.85;99.12
7376;BME280;3728;42.266;24.944;2023-01-25T02:41:41;101019.34;;;3.76;100.00
7376;BME280;3728;42.266;24.944;2023-01-25T02:44:27;101024.69;;;3.63;100.00
7376;BME280;3728;42.266;24.944;2023-01-25T02:47:02;101011.84;;;3.68;100.00
7376;BME280;3728;42.266;24.944;2023-01-25T02:49:29;101022.22;;;3.86;98.87
7376;BME280;3728;42.266;24.944;2023-01-25T02:52:00;101025.19;;;4.01;96.88
7376;BME280;3728;42.266;24.944;2023-01-25T02:54:28;101027.94;;;4.47;94.82
7376;BME280;3728;42.266;24.944;2023-01-25T02:56:56;101022.72;;;4.06;94.94
7376;BME280;3728;42.266;24.944;2023-01-25T02:59:28;101031.63;;;4.10;96.28
7376;BME280;3728;42.266;24.944;2023-01-25T03:01:58;101030.78;;;4.16;96.32
7376;BME280;3728;42.266;24.944;2023-01-25T03:04:26;101036.28;;;4.20;96.30
7376;BME280;3728;42.266;24.944;2023-01-25T03:06:54;101034.34;;;4.33;96.58
7376;BME280;3728;42.266;24.944;2023-01-25T03:09:22;101027.25;;;3.81;97.77
7376;BME280;3728;42.266;24.944;2023-01-25T03:11:49;101020.53;;;3.91;100.00
7376;BME280;3728;42.266;24.944;2023-01-25T03:14:19;101014.75;;;3.60;100.00
7376;BME280;3728;42.266;24.944;2023-01-25T03:16:48;101014.06;;;3.82;100.00
7376;BME280;3728;42.266;24.944;2023-01-25T03:19:18;101014.88;;;3.65;100.00
7376;BME280;3728;42.266;24.944;2023-01-25T03:21:46;101017.06;;;3.97;99.92
7376;BME280;3728;42.266;24.944;2023-01-25T03:24:13;101021.38;;;4.03;98.54
7376;BME280;3728;42.266;24.944;2023-01-25T03:26:44;101012.59;;;4.04;97.66
7376;BME280;3728;42.266;24.944;2023-01-25T03:29:36;101015.13;;;4.23;97.15
7376;BME280;3728;42.266;24.944;2023-01-25T03:32:09;101011.41;;;4.19;95.68
7376;BME280;3728;42.266;24.944;2023-01-25T03:34:37;101007.38;;;3.75;98.67
7376;BME280;3728;42.266;24.944;2023-01-25T03:37:05;101014.56;;;3.73;100.00
7376;BME280;3728;42.266;24.944;2023-01-25T03:39:35;101010.28;;;3.67;99.77
7376;BME280;3728;42.266;24.944;2023-01-25T03:42:02;101009.81;;;3.88;99.11
7376;BME280;3728;42.266;24.944;2023-01-25T03:44:31;101014.25;;;3.99;98.03
7376;BME280;3728;42.266;24.944;2023-01-25T03:46:59;101014.81;;;4.01;94.85
7376;BME280;3728;42.266;24.944;2023-01-25T03:49:27;101012.22;;;4.01;95.06
7376;BME280;3728;42.266;24.944;2023-01-25T03:51:55;101015.13;;;3.93;95.93
7376;BME280;3728;42.266;24.944;2023-01-25T03:54:31;101012.97;;;3.90;94.23
7376;BME280;3728;42.266;24.944;2023-01-25T03:57:00;101020.53;;;3.91;94.98
7376;BME280;3728;42.266;24.944;2023-01-25T03:59:28;101016.88;;;3.81;95.17
7376;BME280;3728;42.266;24.944;2023-01-25T04:01:56;101019.38;;;3.87;95.55
7376;BME280;3728;42.266;24.944;2023-01-25T04:04:23;101020.75;;;3.90;94.90
7376;BME280;3728;42.266;24.944;2023-01-25T04:06:51;101018.09;;;3.78;93.72
7376;BME280;3728;42.266;24.944;2023-01-25T04:09:21;101020.47;;;3.80;94.37
7376;BME280;3728;42.266;24.944;2023-01-25T04:11:51;101023.53;;;3.77;94.02
7376;BME280;3728;42.266;24.944;2023-01-25T04:14:19;101020.03;;;3.83;94.87
7376;BME280;3728;42.266;24.944;2023-01-25T04:17:06;101029.81;;;3.99;93.35
7376;BME280;3728;42.266;24.944;2023-01-25T04:19:46;101030.72;;;4.04;92.92
7376;BME280;3728;42.266;24.944;2023-01-25T04:22:18;101024.28;;;3.95;93.14
7376;BME280;3728;42.266;24.944;2023-01-25T04:24:47;101022.78;;;3.88;94.29
7376;BME280;3728;42.266;24.944;2023-01-25T04:27:15;101028.84;;;4.11;92.83
7376;BME280;3728;42.266;24.944;2023-01-25T04:29:56;101025.59;;;4.16;90.52
7376;BME280;3728;42.266;24.944;2023-01-25T04:32:25;101024.63;;;3.99;91.49
7376;BME280;3728;42.266;24.944;2023-01-25T04:34:53;101033.41;;;3.98;92.67
7376;BME280;3728;42.266;24.944;2023-01-25T04:37:24;101038.19;;;3.83;93.57
7376;BME280;3728;42.266;24.944;2023-01-25T04:39:56;101033.28;;;3.93;93.11
7376;BME280;3728;42.266;24.944;2023-01-25T04:42:24;101037.53;;;3.87;92.61
7376;BME280;3728;42.266;24.944;2023-01-25T04:44:54;101035.25;;;4.09;91.26
7376;BME280;3728;42.266;24.944;2023-01-25T04:47:22;101036.75;;;4.17;90.32
7376;BME280;3728;42.266;24.944;2023-01-25T04:49:50;101036.06;;;4.09;91.38
7376;BME280;3728;42.266;24.944;2023-01-25T04:52:21;101040.16;;;3.99;91.10
7376;BME280;3728;42.266;24.944;2023-01-25T04:54:49;101033.09;;;4.06;92.07
7376;BME280;3728;42.266;24.944;2023-01-25T04:57:17;101034.38;;;3.85;92.88
7376;BME280;3728;42.266;24.944;2023-01-25T04:59:49;101033.94;;;3.88;92.10
7376;BME280;3728;42.266;24.944;2023-01-25T05:02:17;101044.22;;;3.95;90.88
7376;BME280;3728;42.266;24.944;2023-01-25T05:04:45;101036.00;;;3.80;92.43
7376;BME280;3728;42.266;24.944;2023-01-25T05:07:13;101048.00;;;4.10;90.81
7376;BME280;3728;42.266;24.944;2023-01-25T05:09:41;101039.88;;;4.07;89.50
7376;BME280;3728;42.266;24.944;2023-01-25T05:12:09;101039.03;;;3.95;91.14
7376;BME280;3728;42.266;24.944;2023-01-25T05:14:52;101040.72;;;4.19;89.27
7376;BME280;3728;42.266;24.944;2023-01-25T05:17:21;101038.59;;;4.28;87.53
7376;BME280;3728;42.266;24.944;2023-01-25T05:19:49;101042.28;;;4.20;87.14
7376;BME280;3728;42.266;24.944;2023-01-25T05:22:19;101038.09;;;3.89;88.19
7376;BME280;3728;42.266;24.944;2023-01-25T05:24:50;101039.88;;;3.89;89.25
7376;BME280;3728;42.266;24.944;2023-01-25T05:27:19;101040.34;;;3.86;89.76
7376;BME280;3728;42.266;24.944;2023-01-25T05:29:54;101044.59;;;3.80;90.33
7376;BME280;3728;42.266;24.944;2023-01-25T05:32:34;101042.47;;;3.89;90.32
7376;BME280;3728;42.266;24.944;2023-01-25T05:35:02;101050.53;;;3.99;91.04
7376;BME280;3728;42.266;24.944;2023-01-25T05:37:30;101053.88;;;4.18;86.24
7376;BME280;3728;42.266;24.944;2023-01-25T05:40:05;101054.34;;;3.96;88.15
7376;BME280;3728;42.266;24.944;2023-01-25T05:42:36;101051.75;;;3.96;87.99
7376;BME280;3728;42.266;24.944;2023-01-25T05:45:12;101049.00;;;4.09;86.43
7376;BME280;3728;42.266;24.944;2023-01-25T05:47:41;101052.75;;;4.13;84.99
7376;BME280;3728;42.266;24.944;2023-01-25T05:50:09;101055.06;;;4.03;86.04
7376;BME280;3728;42.266;24.944;2023-01-25T05:52:48;101052.84;;;4.07;85.29
7376;BME280;3728;42.266;24.944;2023-01-25T05:55:18;101060.81;;;4.05;85.61
7376;BME280;3728;42.266;24.944;2023-01-25T05:57:47;101056.56;;;4.11;84.89
7376;BME280;3728;42.266;24.944;2023-01-25T06:00:16;101050.53;;;3.99;85.83
7376;BME280;3728;42.266;24.944;2023-01-25T06:02:44;101051.50;;;4.16;85.68
7376;BME280;3728;42.266;24.944;2023-01-25T06:05:17;101051.84;;;4.20;85.14
7376;BME280;3728;42.266;24.944;2023-01-25T06:07:45;101055.28;;;4.32;82.35
7376;BME280;3728;42.266;24.944;2023-01-25T06:10:13;101058.13;;;4.42;82.97
7376;BME280;3728;42.266;24.944;2023-01-25T06:12:42;101061.22;;;4.21;82.44
7376;BME280;3728;42.266;24.944;2023-01-25T06:15:10;101061.66;;;4.18;83.60
7376;BME280;3728;42.266;24.944;2023-01-25T06:17:38;101068.38;;;4.07;83.93
7376;BME280;3728;42.266;24.944;2023-01-25T06:20:31;101066.72;;;4.12;83.48
7376;BME280;3728;42.266;24.944;2023-01-25T06:23:05;101062.94;;;3.79;86.05
7376;BME280;3728;42.266;24.944;2023-01-25T06:25:33;101063.22;;;3.71;87.94
7376;BME280;3728;42.266;24.944;2023-01-25T06:28:03;101061.06;;;3.86;88.20
7376;BME280;3728;42.266;24.944;2023-01-25T06:30:31;101062.84;;;4.03;86.24
7376;BME280;3728;42.266;24.944;2023-01-25T06:32:59;101061.47;;;4.01;86.09
7376;BME280;3728;42.266;24.944;2023-01-25T06:35:27;101065.66;;;4.02;84.39
7376;BME280;3728;42.266;24.944;2023-01-25T06:37:58;101064.06;;;4.01;84.94
7376;BME280;3728;42.266;24.944;2023-01-25T06:40:27;101059.06;;;3.88;86.72
7376;BME280;3728;42.266;24.944;2023-01-25T06:43:04;101059.03;;;4.06;86.28
7376;BME280;3728;42.266;24.944;2023-01-25T06:45:36;101066.72;;;4.12;84.91
7376;BME280;3728;42.266;24.944;2023-01-25T06:48:04;101061.97;;;4.09;85.55
7376;BME280;3728;42.266;24.944;2023-01-25T06:50:31;101059.91;;;4.00;83.85
7376;BME280;3728;42.266;24.944;2023-01-25T06:52:59;101054.63;;;4.06;84.94
7376;BME280;3728;42.266;24.944;2023-01-25T06:55:26;101060.34;;;4.27;82.52
7376;BME280;3728;42.266;24.944;2023-01-25T06:57:59;101064.34;;;4.11;84.56
7376;BME280;3728;42.266;24.944;2023-01-25T07:00:27;101065.63;;;4.20;83.27
7376;BME280;3728;42.266;24.944;2023-01-25T07:02:54;101066.84;;;4.18;83.53
7376;BME280;3728;42.266;24.944;2023-01-25T07:05:22;101071.88;;;4.12;82.28
7376;BME280;3728;42.266;24.944;2023-01-25T07:07:49;101061.63;;;4.36;83.02
7376;BME280;3728;42.266;24.944;2023-01-25T07:10:19;101063.28;;;4.30;83.14
7376;BME280;3728;42.266;24.944;2023-01-25T07:12:47;101062.69;;;4.17;83.56
7376;BME280;3728;42.266;24.944;2023-01-25T07:15:14;101063.25;;;4.19;83.78
7376;BME280;3728;42.266;24.944;2023-01-25T07:17:42;101070.38;;;4.23;82.34
7376;BME280;3728;42.266;24.944;2023-01-25T07:20:10;101065.22;;;4.35;82.88
7376;BME280;3728;42.266;24.944;2023-01-25T07:22:38;101066.03;;;4.35;81.54
7376;BME280;3728;42.266;24.944;2023-01-25T07:25:05;101066.59;;;4.37;81.46
7376;BME280;3728;42.266;24.944;2023-01-25T07:27:34;101065.25;;;4.46;80.90
7376;BME280;3728;42.266;24.944;2023-01-25T07:30:02;101068.38;;;4.37;81.81
7376;BME280;3728;42.266;24.944;2023-01-25T07:32:30;101075.22;;;4.31;82.08
7376;BME280;3728;42.266;24.944;2023-01-25T07:34:58;101074.66;;;4.29;81.26
7376;BME280;3728;42.266;24.944;2023-01-25T07:37:25;101069.25;;;4.19;82.25
7376;BME280;3728;42.266;24.944;2023-01-25T07:39:53;101072.22;;;4.34;81.93
7376;BME280;3728;42.266;24.944;2023-01-25T07:42:23;101076.59;;;4.34;80.91
7376;BME280;3728;42.266;24.944;2023-01-25T07:45:09;101071.94;;;4.24;81.52
7376;BME280;3728;42.266;24.944;2023-01-25T07:47:37;101083.06;;;4.13;82.86
7376;BME280;3728;42.266;24.944;2023-01-25T07:50:05;101079.31;;;4.39;82.54
7376;BME280;3728;42.266;24.944;2023-01-25T07:52:33;101085.75;;;4.36;81.98
7376;BME280;3728;42.266;24.944;2023-01-25T07:55:01;101086.69;;;4.42;81.36
7376;BME280;3728;42.266;24.944;2023-01-25T07:57:29;101094.28;;;4.66;79.28
7376;BME280;3728;42.266;24.944;2023-01-25T07:59:56;101082.78;;;4.62;79.11
7376;BME280;3728;42.266;24.944;2023-01-25T08:02:27;101079.81;;;4.18;80.60
7376;BME280;3728;42.266;24.944;2023-01-25T08:04:54;101076.69;;;3.97;82.04
7376;BME280;3728;42.266;24.944;2023-01-25T08:07:22;101077.69;;;3.96;82.53
7376;BME280;3728;42.266;24.944;2023-01-25T08:09:49;101077.59;;;4.03;82.52
7376;BME280;3728;42.266;24.944;2023-01-25T08:12:18;101076.16;;;4.37;80.48
7376;BME280;3728;42.266;24.944;2023-01-25T08:14:46;101083.25;;;4.30;81.00
7376;BME280;3728;42.266;24.944;2023-01-25T08:17:15;101092.53;;;4.37;80.35
7376;BME280;3728;42.266;24.944;2023-01-25T08:19:42;101088.34;;;4.36;78.52
7376;BME280;3728;42.266;24.944;2023-01-25T08:22:10;101086.34;;;3.90;83.24
7376;BME280;3728;42.266;24.944;2023-01-25T08:24:39;101087.28;;;3.78;83.43
7376;BME280;3728;42.266;24.944;2023-01-25T08:27:06;101084.88;;;3.94;83.31
7376;BME280;3728;42.266;24.944;2023-01-25T08:29:34;101085.00;;;4.18;81.97
7376;BME280;3728;42.266;24.944;2023-01-25T08:32:01;101087.16;;;4.21;80.95
7376;BME280;3728;42.266;24.944;2023-01-25T08:34:32;101091.69;;;4.25;81.18
7376;BME280;3728;42.266;24.944;2023-01-25T08:37:00;101091.25;;;4.10;82.20
7376;BME280;3728;42.266;24.944;2023-01-25T08:39:28;101096.09;;;4.06;81.55
7376;BME280;3728;42.266;24.944;2023-01-25T08:41:55;101089.69;;;4.09;82.90
7376;BME280;3728;42.266;24.944;2023-01-25T08:44:24;101091.16;;;4.35;81.82
7376;BME280;3728;42.266;24.944;2023-01-25T08:46:51;101098.41;;;4.44;79.84
7376;BME280;3728;42.266;24.944;2023-01-25T08:49:19;101093.47;;;4.43;79.96
7376;BME280;3728;42.266;24.944;2023-01-25T08:51:49;101091.97;;;4.17;80.55
7376;BME280;3728;42.266;24.944;2023-01-25T08:54:18;101091.50;;;4.38;81.02
7376;BME280;3728;42.266;24.944;2023-01-25T08:56:45;101088.03;;;4.44;79.69
7376;BME280;3728;42.266;24.944;2023-01-25T08:59:13;101088.59;;;4.46;79.35
7376;BME280;3728;42.266;24.944;2023-01-25T09:01:41;101083.78;;;4.50;79.28
7376;BME280;3728;42.266;24.944;2023-01-25T09:04:09;101084.19;;;4.35;79.93
7376;BME280;3728;42.266;24.944;2023-01-25T09:06:37;101084.69;;;4.55;79.26
7376;BME280;3728;42.266;24.944;2023-01-25T09:09:04;101079.63;;;4.60;78.98
7376;BME280;3728;42.266;24.944;2023-01-25T09:11:34;101080.31;;;4.67;78.22
7376;BME280;3728;42.266;24.944;2023-01-25T09:14:03;101076.47;;;4.58;78.55
7376;BME280;3728;42.266;24.944;2023-01-25T09:16:31;101065.06;;;4.59;78.99
7376;BME280;3728;42.266;24.944;2023-01-25T09:19:01;101069.38;;;4.65;79.74
7376;BME280;3728;42.266;24.944;2023-01-25T09:21:30;101065.19;;;4.64;78.69
7376;BME280;3728;42.266;24.944;2023-01-25T09:23:58;101058.88;;;4.60;79.51
7376;BME280;3728;42.266;24.944;2023-01-25T09:26:37;101056.28;;;4.60;78.98
7376;BME280;3728;42.266;24.944;2023-01-25T09:29:15;101054.13;;;4.69;78.21
7376;BME280;3728;42.266;24.944;2023-01-25T09:31:44;101054.88;;;5.11;76.02
7376;BME280;3728;42.266;24.944;2023-01-25T09:34:27;101048.75;;;5.40;75.34
7376;BME280;3728;42.266;24.944;2023-01-25T09:36:56;101041.75;;;4.82;77.46
7376;BME280;3728;42.266;24.944;2023-01-25T09:39:24;101043.66;;;4.75;78.20
7376;BME280;3728;42.266;24.944;2023-01-25T09:42:05;101030.31;;;4.49;78.83
7376;BME280;3728;42.266;24.944;2023-01-25T09:47:29;101024.28;;;4.78;77.49
7376;BME280;3728;42.266;24.944;2023-01-25T09:56:16;101010.38;;;4.84;78.61
7376;BME280;3728;42.266;24.944;2023-01-25T09:58:47;101002.56;;;5.19;76.31
7376;BME280;3728;42.266;24.944;2023-01-25T10:01:43;101010.06;;;5.04;76.71
7376;BME280;3728;42.266;24.944;2023-01-25T10:04:18;101012.94;;;5.30;74.41
7376;BME280;3728;42.266;24.944;2023-01-25T10:06:53;101005.41;;;5.29;71.67
7376;BME280;3728;42.266;24.944;2023-01-25T10:09:42;101004.06;;;4.92;74.83
7376;BME280;3728;42.266;24.944;2023-01-25T10:12:24;101002.47;;;4.91;76.69
7376;BME280;3728;42.266;24.944;2023-01-25T10:14:54;100989.63;;;4.96;76.04
7376;BME280;3728;42.266;24.944;2023-01-25T10:17:51;100983.72;;;4.54;75.82
7376;BME280;3728;42.266;24.944;2023-01-25T10:20:40;100977.88;;;4.47;78.41
7376;BME280;3728;42.266;24.944;2023-01-25T10:29:18;100959.06;;;4.22;80.28
7376;BME280;3728;42.266;24.944;2023-01-25T10:31:48;100953.94;;;4.33;79.32
7376;BME280;3728;42.266;24.944;2023-01-25T10:34:23;100959.72;;;4.81;76.66
7376;BME280;3728;42.266;24.944;2023-01-25T10:37:31;100948.53;;;4.46;78.39
7376;BME280;3728;42.266;24.944;2023-01-25T10:42:50;100954.75;;;4.68;78.81
7376;BME280;3728;42.266;24.944;2023-01-25T10:45:20;100948.16;;;5.24;74.67
7376;BME280;3728;42.266;24.944;2023-01-25T10:47:54;100937.34;;;4.80;76.56
7376;BME280;3728;42.266;24.944;2023-01-25T10:53:33;100927.56;;;5.34;74.18
7376;BME280;3728;42.266;24.944;2023-01-25T10:56:22;100931.72;;;4.95;75.10
7376;BME280;3728;42.266;24.944;2023-01-25T10:58:53;100918.59;;;5.02;76.63
7376;BME280;3728;42.266;24.944;2023-01-25T11:01:40;100922.78;;;5.03;74.99
7376;BME280;3728;42.266;24.944;2023-01-25T11:07:02;100934.75;;;5.04;75.26
7376;BME280;3728;42.266;24.944;2023-01-25T11:09:37;100925.06;;;4.99;76.36
7376;BME280;3728;42.266;24.944;2023-01-25T11:12:15;100919.28;;;4.97;76.12
7376;BME280;3728;42.266;24.944;2023-01-25T11:14:46;100910.53;;;5.26;74.82
7376;BME280;3728;42.266;24.944;2023-01-25T11:17:29;100911.53;;;5.25;74.45
7376;BME280;3728;42.266;24.944;2023-01-25T11:20:18;100917.44;;;5.21;74.39
7376;BME280;3728;42.266;24.944;2023-01-25T11:22:54;100903.56;;;5.15;76.86
7376;BME280;3728;42.266;24.944;2023-01-25T11:25:32;100900.94;;;5.27;74.54
7376;BME280;3728;42.266;24.944;2023-01-25T11:28:24;100898.25;;;5.22;74.80
7376;BME280;3728;42.266;24.944;2023-01-25T11:30:52;100897.63;;;4.92;75.22
7376;BME280;3728;42.266;24.944;2023-01-25T11:33:20;100885.06;;;5.12;76.27
7376;BME280;3728;42.266;24.944;2023-01-25T11:38:53;100888.28;;;4.79;76.21
7376;BME280;3728;42.266;24.944;2023-01-25T11:56:45;100865.84;;;4.84;76.66
7376;BME280;3728;42.266;24.944;2023-01-25T12:06:17;100855.63;;;5.06;74.57
7376;BME280;3728;42.266;24.944;2023-01-25T12:09:17;100850.16;;;5.47;72.58
7376;BME280;3728;42.266;24.944;2023-01-25T12:12:28;100847.25;;;5.04;74.51
7376;BME280;3728;42.266;24.944;2023-01-25T12:21:30;100831.16;;;4.91;75.97
7376;BME280;3728;42.266;24.944;2023-01-25T12:24:19;100828.44;;;4.97;76.46
7376;BME280;3728;42.266;24.944;2023-01-25T12:31:13;100810.41;;;4.91;76.89
7376;BME280;3728;42.266;24.944;2023-01-25T12:34:01;100810.50;;;4.96;76.97
7376;BME280;3728;42.266;24.944;2023-01-25T12:36:35;100817.34;;;5.13;76.42
7376;BME280;3728;42.266;24.944;2023-01-25T12:39:26;100822.69;;;5.68;74.54
7376;BME280;3728;42.266;24.944;2023-01-25T12:42:14;100822.81;;;5.90;72.74
7376;BME280;3728;42.266;24.944;2023-01-25T12:45:05;100809.16;;;5.66;73.42
7376;BME280;3728;42.266;24.944;2023-01-25T12:48:20;100806.81;;;5.81;72.78
7376;BME280;3728;42.266;24.944;2023-01-25T12:50:55;100817.44;;;5.96;68.92
7376;BME280;3728;42.266;24.944;2023-01-25T12:53:32;100807.66;;;5.70;71.52
7376;BME280;3728;42.266;24.944;2023-01-25T12:56:07;100801.78;;;5.46;72.46
7376;BME280;3728;42.266;24.944;2023-01-25T12:58:52;100800.28;;;5.34;72.37
7376;BME280;3728;42.266;24.944;2023-01-25T13:01:33;100801.69;;;5.25;73.79
7376;BME280;3728;42.266;24.944;2023-01-25T13:07:56;100792.13;;;5.14;75.10
7376;BME280;3728;42.266;24.944;2023-01-25T13:11:26;100794.16;;;5.40;72.21
7376;BME280;3728;42.266;24.944;2023-01-25T13:16:54;100785.84;;;5.10;74.62
7376;BME280;3728;42.266;24.944;2023-01-25T13:19:40;100782.88;;;5.18;74.05
7376;BME280;3728;42.266;24.944;2023-01-25T13:22:54;100787.38;;;5.22;73.75
7376;BME280;3728;42.266;24.944;2023-01-25T13:25:24;100778.88;;;5.27;74.30
7376;BME280;3728;42.266;24.944;2023-01-25T13:37:02;100785.56;;;5.39;72.21
7376;BME280;3728;42.266;24.944;2023-01-25T13:39:46;100778.38;;;5.13;74.34
7376;BME280;3728;42.266;24.944;2023-01-25T13:44:57;100771.84;;;5.72;79.55
7376;BME280;3728;42.266;24.944;2023-01-25T13:47:37;100772.94;;;5.76;79.86
7376;BME280;3728;42.266;24.944;2023-01-25T13:55:37;100777.97;;;5.66;78.41
7376;BME280;3728;42.266;24.944;2023-01-25T13:58:32;100781.09;;;5.51;80.07
7376;BME280;3728;42.266;24.944;2023-01-25T14:01:06;100781.25;;;5.45;77.91
7376;BME280;3728;42.266;24.944;2023-01-25T14:03:42;100784.16;;;5.32;78.57
7376;BME280;3728;42.266;24.944;2023-01-25T14:06:43;100786.00;;;5.48;79.16
7376;BME280;3728;42.266;24.944;2023-01-25T14:09:18;100791.84;;;5.88;73.88
7376;BME280;3728;42.266;24.944;2023-01-25T14:11:57;100786.53;;;5.50;76.90
7376;BME280;3728;42.266;24.944;2023-01-25T14:17:15;100794.97;;;5.74;76.77
7376;BME280;3728;42.266;24.944;2023-01-25T14:19:47;100790.34;;;5.92;74.77
7376;BME280;3728;42.266;24.944;2023-01-25T14:22:35;100786.66;;;5.88;73.64
7376;BME280;3728;42.266;24.944;2023-01-25T14:25:15;100781.97;;;5.57;74.13
7376;BME280;3728;42.266;24.944;2023-01-25T14:33:33;100773.44;;;5.28;77.74
7376;BME280;3728;42.266;24.944;2023-01-25T14:36:08;100773.03;;;5.20;77.31
7376;BME280;3728;42.266;24.944;2023-01-25T14:38:51;100773.66;;;5.10;76.67
7376;BME280;3728;42.266;24.944;2023-01-25T14:41:35;100777.59;;;5.13;77.43
7376;BME280;3728;42.266;24.944;2023-01-25T14:44:21;100776.47;;;5.09;77.58
7376;BME280;3728;42.266;24.944;2023-01-25T14:53:25;100780.16;;;5.58;72.66
7376;BME280;3728;42.266;24.944;2023-01-25T14:55:54;100781.09;;;5.68;73.90
7376;BME280;3728;42.266;24.944;2023-01-25T14:58:23;100780.72;;;5.76;73.05
7376;BME280;3728;42.266;24.944;2023-01-25T15:00:57;100790.53;;;5.41;74.51
7376;BME280;3728;42.266;24.944;2023-01-25T15:03:28;100780.97;;;5.13;75.74
7376;BME280;3728;42.266;24.944;2023-01-25T15:06:01;100781.50;;;4.99;76.59
7376;BME280;3728;42.266;24.944;2023-01-25T15:08:36;100779.59;;;4.94;78.25
7376;BME280;3728;42.266;24.944;2023-01-25T15:11:26;100770.13;;;4.88;77.64
7376;BME280;3728;42.266;24.944;2023-01-25T15:14:20;100772.06;;;4.81;77.84
7376;BME280;3728;42.266;24.944;2023-01-25T15:16:48;100771.34;;;5.14;76.35
7376;BME280;3728;42.266;24.944;2023-01-25T15:19:29;100779.50;;;5.17;78.98
7376;BME280;3728;42.266;24.944;2023-01-25T15:21:59;100785.56;;;5.23;77.17
7376;BME280;3728;42.266;24.944;2023-01-25T15:24:28;100786.47;;;5.17;75.00
7376;BME280;3728;42.266;24.944;2023-01-25T15:26:55;100788.69;;;5.08;75.96